createdAt,value
2019-04-30T00:00:51.966Z,101967.36
2019-04-30T00:02:16.082Z,101978.40
2019-04-30T00:03:27.736Z,101978.02
2019-04-30T00:04:40.283Z,101975.10
2019-04-30T00:05:42.844Z,101972.91
2019-04-30T00:06:48.241Z,101974.72
2019-04-30T00:07:55.052Z,101975.58
2019-04-30T00:09:02.460Z,101976.91
2019-04-30T00:10:07.727Z,101977.01
2019-04-30T00:11:15.934Z,101975.20
2019-04-30T00:12:22.037Z,101979.10
2019-04-30T00:13:27.675Z,101980.53
2019-04-30T00:14:39.939Z,101976.15
2019-04-30T00:15:39.665Z,101971.33
2019-04-30T00:16:45.102Z,101974.47
2019-04-30T00:17:53.001Z,101977.14
2019-04-30T00:19:00.465Z,101982.34
2019-04-30T00:20:05.302Z,101976.53
2019-04-30T00:21:15.169Z,101975.58
2019-04-30T00:22:17.367Z,101980.53
2019-04-30T00:23:29.306Z,101975.42
2019-04-30T00:24:29.921Z,101973.71
2019-04-30T00:25:35.334Z,101976.98
2019-04-30T00:26:46.755Z,101968.25
2019-04-30T00:27:48.171Z,101974.92
2019-04-30T00:28:55.231Z,101975.39
2019-04-30T00:30:07.348Z,101972.25
2019-04-30T00:31:10.065Z,101972.13
2019-04-30T00:32:16.040Z,101968.51
2019-04-30T00:33:22.333Z,101974.09
2019-04-30T00:34:30.877Z,101971.91
2019-04-30T00:35:35.520Z,101974.09
2019-04-30T00:36:41.084Z,101970.56
2019-04-30T00:37:51.733Z,101969.71
2019-04-30T00:38:54.814Z,101969.71
2019-04-30T00:39:59.894Z,101973.23
2019-04-30T00:41:06.941Z,101969.23
2019-04-30T00:42:12.261Z,101970.09
2019-04-30T00:43:17.443Z,101964.28
2019-04-30T00:44:24.904Z,101966.57
2019-04-30T00:45:29.408Z,101968.77
2019-04-30T00:46:36.470Z,101966.70
2019-04-30T00:47:44.628Z,101960.98
2019-04-30T00:48:51.431Z,101966.70
2019-04-30T00:50:00.078Z,101965.37
2019-04-30T00:51:07.429Z,101964.03
2019-04-30T00:52:10.662Z,101961.23
2019-04-30T00:53:16.656Z,101964.16
2019-04-30T00:54:22.335Z,101965.87
2019-04-30T00:55:29.080Z,101964.16
2019-04-30T00:56:35.528Z,101961.14
2019-04-30T00:57:43.787Z,101966.57
2019-04-30T00:58:47.604Z,101971.17
2019-04-30T00:59:52.838Z,101952.73
2019-04-30T01:01:22.716Z,101960.48
2019-04-30T01:02:52.259Z,101959.15
2019-04-30T01:04:02.575Z,101965.81
2019-04-30T01:05:10.866Z,101959.34
2019-04-30T01:06:17.211Z,101958.01
2019-04-30T01:07:23.138Z,101962.86
2019-04-30T01:08:28.742Z,101963.72
2019-04-30T01:09:35.404Z,101963.15
2019-04-30T01:10:40.591Z,101960.36
2019-04-30T01:11:48.061Z,101954.55
2019-04-30T01:12:52.886Z,101959.50
2019-04-30T01:13:59.084Z,101952.97
2019-04-30T01:15:06.399Z,101953.06
2019-04-30T01:16:11.117Z,101952.68
2019-04-30T01:17:16.572Z,101947.22
2019-04-30T01:18:23.546Z,101949.13
2019-04-30T01:19:30.664Z,101946.12
2019-04-30T01:20:38.587Z,101950.11
2019-04-30T01:21:46.924Z,101946.12
2019-04-30T01:22:50.818Z,101945.61
2019-04-30T01:23:55.934Z,101943.70
2019-04-30T01:25:08.017Z,101947.22
2019-04-30T01:26:08.763Z,101942.84
2019-04-30T01:27:14.157Z,101944.17
2019-04-30T01:28:22.849Z,101937.14
2019-04-30T01:29:26.442Z,101938.84
2019-04-30T01:30:31.690Z,101938.84
2019-04-30T01:31:39.687Z,101947.57
2019-04-30T01:32:43.750Z,101935.58
2019-04-30T01:33:49.334Z,101935.01
2019-04-30T01:34:54.557Z,101937.07
2019-04-30T01:36:04.170Z,101937.45
2019-04-30T01:37:08.715Z,101935.52
2019-04-30T01:38:13.859Z,101937.22
2019-04-30T01:39:19.600Z,101938.17
2019-04-30T01:40:28.520Z,101936.50
2019-04-30T01:41:33.737Z,101937.07
2019-04-30T01:42:41.129Z,101939.86
2019-04-30T01:43:45.846Z,101933.90
2019-04-30T01:44:53.850Z,101934.47
2019-04-30T01:46:01.749Z,101929.62
2019-04-30T01:47:04.884Z,101937.73
2019-04-30T01:48:12.806Z,101940.28
2019-04-30T01:49:20.064Z,101933.36
2019-04-30T01:50:23.829Z,101933.74
2019-04-30T01:51:29.212Z,101934.13
2019-04-30T01:52:51.890Z,101938.13
2019-04-30T01:53:56.855Z,101934.47
2019-04-30T01:55:01.807Z,101939.95
2019-04-30T01:56:26.645Z,101934.87
2019-04-30T01:57:49.310Z,101933.20
2019-04-30T01:58:59.400Z,101939.36
2019-04-30T02:00:19.571Z,101935.96
2019-04-30T02:01:25.735Z,101931.23
2019-04-30T02:02:32.744Z,101934.85
2019-04-30T02:03:39.944Z,101936.66
2019-04-30T02:04:45.267Z,101936.41
2019-04-30T02:05:50.374Z,101936.50
2019-04-30T02:06:55.630Z,101932.63
2019-04-30T02:08:00.681Z,101935.77
2019-04-30T02:09:06.545Z,101937.58
2019-04-30T02:10:12.496Z,101932.25
2019-04-30T02:11:18.998Z,101933.36
2019-04-30T02:12:24.154Z,101935.33
2019-04-30T02:13:34.185Z,101930.38
2019-04-30T02:14:36.077Z,101931.23
2019-04-30T02:15:41.531Z,101929.30
2019-04-30T02:16:46.720Z,101932.69
2019-04-30T02:17:51.949Z,101932.22
2019-04-30T02:18:56.995Z,101936.12
2019-04-30T02:20:02.119Z,101934.78
2019-04-30T02:21:08.953Z,101937.45
2019-04-30T02:22:14.036Z,101940.11
2019-04-30T02:23:19.719Z,101939.86
2019-04-30T02:24:25.534Z,101938.15
2019-04-30T02:25:30.766Z,101936.44
2019-04-30T02:26:36.220Z,101938.63
2019-04-30T02:27:41.578Z,101939.58
2019-04-30T02:28:46.803Z,101936.44
2019-04-30T02:29:52.065Z,101939.36
2019-04-30T02:30:59.965Z,101940.59
2019-04-30T02:32:04.317Z,101942.65
2019-04-30T02:33:09.743Z,101938.66
2019-04-30T02:36:40.662Z,101943.64
2019-04-30T02:38:03.143Z,101944.56
2019-04-30T02:39:11.177Z,101948.87
2019-04-30T02:40:20.200Z,101943.89
2019-04-30T02:41:29.285Z,101948.08
2019-04-30T02:42:35.520Z,101947.34
2019-04-30T02:43:42.433Z,101943.95
2019-04-30T02:44:50.507Z,101942.84
2019-04-30T02:45:59.897Z,101942.34
2019-04-30T02:47:05.302Z,101940.53
2019-04-30T02:48:11.834Z,101945.52
2019-04-30T02:49:20.450Z,101941.00
2019-04-30T02:50:29.228Z,101945.13
2019-04-30T02:51:35.009Z,101942.47
2019-04-30T02:52:41.480Z,101944.75
2019-04-30T02:54:24.029Z,101944.27
2019-04-30T02:55:42.501Z,101940.41
2019-04-30T02:56:55.537Z,101942.30
2019-04-30T02:58:00.705Z,101944.59
2019-04-30T02:59:05.831Z,101946.42
2019-04-30T03:00:21.057Z,101945.92
2019-04-30T03:01:26.158Z,101953.91
2019-04-30T03:02:32.370Z,101946.91
2019-04-30T03:03:39.319Z,101945.56
2019-04-30T03:04:44.403Z,101945.56
2019-04-30T03:05:49.754Z,101948.58
2019-04-30T03:06:54.758Z,101947.85
2019-04-30T03:08:00.421Z,101947.00
2019-04-30T03:09:06.905Z,101944.80
2019-04-30T03:10:12.140Z,101944.45
2019-04-30T03:11:20.688Z,101943.48
2019-04-30T03:12:25.770Z,101937.41
2019-04-30T03:13:30.831Z,101935.70
2019-04-30T03:14:36.154Z,101943.60
2019-04-30T03:15:41.191Z,101946.14
2019-04-30T03:17:00.134Z,101935.86
2019-04-30T03:18:12.445Z,101933.20
2019-04-30T03:19:34.446Z,101934.53
2019-04-30T03:21:01.388Z,101930.54
2019-04-30T03:22:10.151Z,101932.09
2019-04-30T03:23:15.494Z,101932.09
2019-04-30T03:24:21.155Z,101938.37
2019-04-30T03:25:29.654Z,101934.38
2019-04-30T03:26:33.548Z,101936.09
2019-04-30T03:27:42.232Z,101933.42
2019-04-30T03:28:45.824Z,101931.70
2019-04-30T03:29:51.108Z,101930.28
2019-04-30T03:30:57.437Z,101931.48
2019-04-30T03:32:03.700Z,101934.06
2019-04-30T03:33:12.642Z,101930.06
2019-04-30T03:34:23.266Z,101930.45
2019-04-30T03:35:23.399Z,101924.52
2019-04-30T03:36:32.637Z,101923.09
2019-04-30T03:37:35.665Z,101930.57
2019-04-30T03:38:42.781Z,101924.04
2019-04-30T03:39:49.319Z,101926.32
2019-04-30T03:40:54.858Z,101927.18
2019-04-30T03:41:59.914Z,101923.56
2019-04-30T03:43:05.113Z,101927.81
2019-04-30T03:44:18.527Z,101925.15
2019-04-30T03:45:17.036Z,101925.88
2019-04-30T03:46:22.200Z,101923.69
2019-04-30T03:47:30.113Z,101920.30
2019-04-30T03:48:35.283Z,101927.34
2019-04-30T03:49:40.734Z,101920.05
2019-04-30T03:50:53.241Z,101920.05
2019-04-30T03:51:52.880Z,101921.37
2019-04-30T03:53:00.444Z,101918.71
2019-04-30T03:54:05.308Z,101913.86
2019-04-30T03:55:10.692Z,101921.00
2019-04-30T03:56:16.155Z,101917.70
2019-04-30T03:57:21.296Z,101915.03
2019-04-30T03:58:29.131Z,101920.84
2019-04-30T03:59:33.495Z,101921.34
2019-04-30T04:01:00.385Z,101922.16
2019-04-30T04:02:22.360Z,101920.48
2019-04-30T04:03:29.708Z,101923.02
2019-04-30T04:04:42.198Z,101917.44
2019-04-30T04:06:12.842Z,101922.39
2019-04-30T04:07:53.038Z,101919.38
2019-04-30T04:09:11.483Z,101924.70
2019-04-30T04:10:25.784Z,101918.52
2019-04-30T04:11:34.402Z,101916.71
2019-04-30T04:12:39.718Z,101926.38
2019-04-30T04:13:44.860Z,101922.77
2019-04-30T04:14:51.173Z,101920.96
2019-04-30T04:15:56.565Z,101926.77
2019-04-30T04:17:01.953Z,101918.52
2019-04-30T04:18:10.346Z,101919.09
2019-04-30T04:19:14.289Z,101922.73
2019-04-30T04:20:20.246Z,101925.49
2019-04-30T04:21:25.698Z,101921.11
2019-04-30T04:22:31.026Z,101925.11
2019-04-30T04:23:36.188Z,101919.43
2019-04-30T04:24:41.808Z,101926.09
2019-04-30T04:25:49.807Z,101922.19
2019-04-30T04:26:54.348Z,101924.98
2019-04-30T04:28:00.531Z,101924.59
2019-04-30T04:29:05.963Z,101927.73
2019-04-30T04:30:11.673Z,101928.69
2019-04-30T04:31:19.073Z,101930.02
2019-04-30T04:32:24.654Z,101932.33
2019-04-30T04:33:29.876Z,101927.00
2019-04-30T04:34:35.153Z,101931.85
2019-04-30T04:35:43.518Z,101930.52
2019-04-30T04:36:50.619Z,101927.86
2019-04-30T04:37:56.111Z,101934.52
2019-04-30T04:39:01.231Z,101934.01
2019-04-30T04:40:09.120Z,101932.59
2019-04-30T04:41:13.527Z,101931.63
2019-04-30T04:42:19.530Z,101934.30
2019-04-30T04:43:25.434Z,101934.30
2019-04-30T04:44:30.517Z,101932.97
2019-04-30T04:45:35.923Z,101933.83
2019-04-30T04:46:40.981Z,101934.17
2019-04-30T04:47:46.472Z,101935.98
2019-04-30T04:48:51.906Z,101929.32
2019-04-30T04:49:56.911Z,101928.50
2019-04-30T04:51:01.933Z,101933.92
2019-04-30T04:52:07.276Z,101933.92
2019-04-30T04:53:12.478Z,101932.68
2019-04-30T04:54:19.939Z,101930.14
2019-04-30T04:55:24.340Z,101932.42
2019-04-30T04:56:30.467Z,101931.69
2019-04-30T04:57:36.027Z,101933.02
2019-04-30T04:58:41.686Z,101927.79
2019-04-30T04:59:49.648Z,101931.78
2019-04-30T05:00:53.706Z,101930.92
2019-04-30T05:02:02.037Z,101932.64
2019-04-30T05:03:26.194Z,101929.97
2019-04-30T05:04:31.304Z,101936.63
2019-04-30T05:05:36.409Z,101928.64
2019-04-30T05:06:41.547Z,101928.17
2019-04-30T05:07:48.620Z,101930.14
2019-04-30T05:08:53.779Z,101927.26
2019-04-30T05:10:00.987Z,101931.77
2019-04-30T05:11:06.471Z,101926.73
2019-04-30T05:12:11.435Z,101926.86
2019-04-30T05:13:16.753Z,101928.70
2019-04-30T05:14:22.077Z,101934.02
2019-04-30T05:15:29.358Z,101934.97
2019-04-30T05:16:34.581Z,101934.02
2019-04-30T05:17:40.035Z,101934.84
2019-04-30T05:18:45.546Z,101933.89
2019-04-30T05:19:50.646Z,101939.86
2019-04-30T05:20:55.826Z,101934.44
2019-04-30T05:22:00.951Z,101934.70
2019-04-30T05:23:06.325Z,101936.88
2019-04-30T05:24:11.381Z,101931.43
2019-04-30T05:25:18.566Z,101933.02
2019-04-30T05:26:23.707Z,101932.83
2019-04-30T05:27:30.304Z,101930.77
2019-04-30T05:28:35.534Z,101934.57
2019-04-30T05:29:41.124Z,101939.16
2019-04-30T05:30:46.721Z,101935.08
2019-04-30T05:31:51.994Z,101940.18
2019-04-30T05:32:58.813Z,101944.56
2019-04-30T05:34:06.374Z,101941.67
2019-04-30T05:35:11.979Z,101939.73
2019-04-30T05:36:19.178Z,101944.59
2019-04-30T05:37:24.305Z,101943.73
2019-04-30T05:38:31.319Z,101941.19
2019-04-30T05:39:36.622Z,101942.14
2019-04-30T05:40:42.649Z,101939.48
2019-04-30T05:41:49.197Z,101947.25
2019-04-30T05:42:54.393Z,101941.83
2019-04-30T05:43:59.466Z,101944.27
2019-04-30T05:45:05.380Z,101946.08
2019-04-30T05:46:10.982Z,101947.03
2019-04-30T05:47:16.115Z,101943.03
2019-04-30T05:48:21.635Z,101940.97
2019-04-30T05:49:28.675Z,101945.44
2019-04-30T05:50:33.615Z,101945.19
2019-04-30T05:51:38.904Z,101948.20
2019-04-30T05:52:44.344Z,101949.82
2019-04-30T05:53:49.734Z,101945.22
2019-04-30T05:54:54.858Z,101945.95
2019-04-30T05:56:00.132Z,101948.39
2019-04-30T05:57:05.795Z,101952.67
2019-04-30T05:58:10.969Z,101956.16
2019-04-30T05:59:16.501Z,101949.15
2019-04-30T06:00:22.027Z,101949.63
2019-04-30T06:01:29.368Z,101955.44
2019-04-30T06:02:34.600Z,101951.91
2019-04-30T06:03:39.785Z,101958.09
2019-04-30T06:04:45.097Z,101952.16
2019-04-30T06:05:50.332Z,101960.53
2019-04-30T06:06:55.492Z,101956.45
2019-04-30T06:08:00.888Z,101955.11
2019-04-30T06:09:18.766Z,101964.31
2019-04-30T06:10:45.661Z,101957.64
2019-04-30T06:12:15.922Z,101958.03
2019-04-30T06:13:32.110Z,101963.03
2019-04-30T06:14:59.346Z,101962.53
2019-04-30T06:16:08.769Z,101964.24
2019-04-30T06:17:16.274Z,101961.34
2019-04-30T06:18:21.601Z,101965.98
2019-04-30T06:19:26.595Z,101962.23
2019-04-30T06:20:31.898Z,101967.84
2019-04-30T06:21:39.073Z,101971.48
2019-04-30T06:22:45.042Z,101968.59
2019-04-30T06:23:50.228Z,101965.73
2019-04-30T06:24:55.943Z,101970.36
2019-04-30T06:26:09.861Z,101973.17
2019-04-30T06:27:10.764Z,101971.52
2019-04-30T06:28:16.458Z,101970.30
2019-04-30T06:29:23.410Z,101968.16
2019-04-30T06:30:29.737Z,101971.31
2019-04-30T06:31:37.995Z,101970.50
2019-04-30T06:32:42.717Z,101966.61
2019-04-30T06:33:48.762Z,101964.09
2019-04-30T06:34:54.245Z,101973.33
2019-04-30T06:36:00.238Z,101970.18
2019-04-30T06:37:05.626Z,101971.86
2019-04-30T06:38:10.861Z,101970.42
2019-04-30T06:39:18.622Z,101976.23
2019-04-30T06:40:23.625Z,101973.20
2019-04-30T06:41:29.580Z,101972.47
2019-04-30T06:42:35.085Z,101974.04
2019-04-30T06:43:40.547Z,101979.61
2019-04-30T06:44:45.993Z,101972.80
2019-04-30T06:45:51.579Z,101973.41
2019-04-30T06:46:58.791Z,101978.97
2019-04-30T06:48:05.594Z,101974.44
2019-04-30T06:49:10.873Z,101976.38
2019-04-30T06:50:16.548Z,101979.05
2019-04-30T06:51:21.680Z,101979.91
2019-04-30T06:52:26.826Z,101976.73
2019-04-30T06:53:32.085Z,101977.11
2019-04-30T06:54:39.267Z,101980.53
2019-04-30T06:55:44.348Z,101978.97
2019-04-30T06:56:49.457Z,101979.46
2019-04-30T06:57:54.389Z,101979.84
2019-04-30T06:58:59.540Z,101979.84
2019-04-30T07:00:06.001Z,101983.23
2019-04-30T07:01:11.551Z,101980.56
2019-04-30T07:02:16.865Z,101980.47
2019-04-30T07:03:22.551Z,101977.56
2019-04-30T07:04:29.309Z,101975.86
2019-04-30T07:05:34.687Z,101979.05
2019-04-30T07:06:43.901Z,101984.16
2019-04-30T07:08:09.208Z,101983.20
2019-04-30T07:09:31.645Z,101978.58
2019-04-30T07:10:36.717Z,101978.83
2019-04-30T07:11:46.377Z,101975.06
2019-04-30T07:12:54.932Z,101981.02
2019-04-30T07:14:00.179Z,101981.16
2019-04-30T07:15:05.778Z,101978.84
2019-04-30T07:16:11.227Z,101976.78
2019-04-30T07:17:16.419Z,101972.30
2019-04-30T07:18:21.612Z,101976.20
2019-04-30T07:19:32.969Z,101976.06
2019-04-30T07:20:34.227Z,101980.59
2019-04-30T07:21:42.886Z,101977.06
2019-04-30T07:22:52.433Z,101972.34
2019-04-30T07:23:55.091Z,101975.49
2019-04-30T07:25:00.360Z,101976.11
2019-04-30T07:26:05.558Z,101973.06
2019-04-30T07:27:10.808Z,101984.36
2019-04-30T07:28:16.231Z,101977.92
2019-04-30T07:29:21.814Z,101981.17
2019-04-30T07:30:26.934Z,101985.69
2019-04-30T07:31:32.081Z,101985.31
2019-04-30T07:32:38.685Z,101986.75
2019-04-30T07:33:43.886Z,101985.17
2019-04-30T07:34:49.636Z,101978.73
2019-04-30T07:35:54.960Z,101991.23
2019-04-30T07:37:11.980Z,101986.41
2019-04-30T07:38:09.891Z,101993.56
2019-04-30T07:39:15.298Z,101994.03
2019-04-30T07:40:20.702Z,101992.33
2019-04-30T07:41:26.174Z,101998.52
2019-04-30T07:42:36.335Z,101998.66
2019-04-30T07:43:39.517Z,102002.05
2019-04-30T07:44:45.055Z,101994.76
2019-04-30T07:45:50.278Z,101997.70
2019-04-30T07:46:55.365Z,101999.28
2019-04-30T07:48:01.841Z,102003.05
2019-04-30T07:49:06.952Z,102007.19
2019-04-30T07:50:12.845Z,102008.64
2019-04-30T07:51:21.319Z,102008.77
2019-04-30T07:52:26.084Z,102001.86
2019-04-30T07:53:35.184Z,101997.75
2019-04-30T07:54:40.556Z,101994.25
2019-04-30T07:55:46.047Z,101993.63
2019-04-30T07:56:51.118Z,102002.67
2019-04-30T07:57:56.429Z,101999.14
2019-04-30T07:59:02.873Z,101994.03
2019-04-30T08:00:09.645Z,101999.75
2019-04-30T08:01:15.179Z,101994.55
2019-04-30T08:02:20.933Z,101995.50
2019-04-30T08:03:51.747Z,101991.12
2019-04-30T08:05:02.692Z,101997.94
2019-04-30T08:06:10.114Z,101995.62
2019-04-30T08:07:15.190Z,101995.11
2019-04-30T08:08:24.505Z,102002.27
2019-04-30T08:09:36.602Z,101991.92
2019-04-30T08:10:35.208Z,101995.22
2019-04-30T08:11:43.507Z,101998.71
2019-04-30T08:12:49.806Z,101999.70
2019-04-30T08:13:54.635Z,101999.80
2019-04-30T08:14:59.711Z,101998.61
2019-04-30T08:16:04.822Z,101999.09
2019-04-30T08:17:10.086Z,101988.98
2019-04-30T08:18:15.323Z,101994.94
2019-04-30T08:19:20.732Z,101999.43
2019-04-30T08:20:25.687Z,101993.47
2019-04-30T08:21:30.804Z,101993.23
2019-04-30T08:22:36.287Z,101998.67
2019-04-30T08:23:41.887Z,101990.55
2019-04-30T08:24:49.010Z,101993.33
2019-04-30T08:25:53.882Z,101998.56
2019-04-30T08:27:01.166Z,101993.22
2019-04-30T08:28:06.329Z,101991.41
2019-04-30T08:29:11.776Z,101995.76
2019-04-30T08:30:23.756Z,101989.84
2019-04-30T08:31:23.770Z,102003.91
2019-04-30T08:32:29.139Z,102000.76
2019-04-30T08:33:34.207Z,101999.91
2019-04-30T08:34:39.485Z,101999.29
2019-04-30T08:35:44.519Z,102001.86
2019-04-30T08:36:49.685Z,101995.42
2019-04-30T08:37:54.937Z,101995.91
2019-04-30T08:39:00.029Z,102000.39
2019-04-30T08:40:05.528Z,101993.13
2019-04-30T08:41:10.748Z,102001.00
2019-04-30T08:42:28.218Z,102003.67
2019-04-30T08:43:23.056Z,101999.29
2019-04-30T08:44:29.505Z,101997.95
2019-04-30T08:45:34.927Z,101996.14
2019-04-30T08:46:40.138Z,101994.33
2019-04-30T08:47:45.378Z,101995.05
2019-04-30T08:48:53.580Z,101997.61
2019-04-30T08:49:59.422Z,101995.80
2019-04-30T08:51:04.611Z,101987.78
2019-04-30T08:52:10.574Z,101990.45
2019-04-30T08:53:26.692Z,101998.84
2019-04-30T08:54:23.268Z,101997.98
2019-04-30T08:55:30.463Z,102001.14
2019-04-30T08:56:35.174Z,102004.19
2019-04-30T08:57:40.169Z,101995.19
2019-04-30T08:58:45.236Z,101993.74
2019-04-30T08:59:50.855Z,101997.98
2019-04-30T09:00:56.250Z,101993.74
2019-04-30T09:02:12.906Z,101996.80
2019-04-30T09:03:09.391Z,101993.98
2019-04-30T09:04:14.510Z,101992.92
2019-04-30T09:05:38.794Z,101995.69
2019-04-30T09:06:44.219Z,101991.44
2019-04-30T09:07:49.678Z,101993.32
2019-04-30T09:08:59.212Z,101991.73
2019-04-30T09:10:04.890Z,101988.11
2019-04-30T09:11:22.628Z,101990.64
2019-04-30T09:12:19.431Z,101989.20
2019-04-30T09:13:24.026Z,101985.19
2019-04-30T09:14:30.026Z,101985.67
2019-04-30T09:15:35.189Z,101989.55
2019-04-30T09:16:40.332Z,101979.23
2019-04-30T09:17:58.929Z,101987.96
2019-04-30T09:18:52.609Z,101986.04
2019-04-30T09:19:58.950Z,101979.11
2019-04-30T09:21:06.469Z,101981.16
2019-04-30T09:22:15.098Z,101976.57
2019-04-30T09:23:18.697Z,101980.20
2019-04-30T09:24:23.859Z,101976.20
2019-04-30T09:25:29.068Z,101975.23
2019-04-30T09:26:34.159Z,101974.72
2019-04-30T09:27:39.943Z,101972.56
2019-04-30T09:28:45.175Z,101976.91
2019-04-30T09:29:50.287Z,101973.76
2019-04-30T09:30:55.342Z,101979.34
2019-04-30T09:32:00.373Z,101970.36
2019-04-30T09:33:05.503Z,101968.54
2019-04-30T09:34:17.131Z,101968.40
2019-04-30T09:35:19.508Z,101978.13
2019-04-30T09:36:24.665Z,101971.45
2019-04-30T09:37:30.590Z,101970.11
2019-04-30T09:38:35.748Z,101971.82
2019-04-30T09:39:40.904Z,101966.47
2019-04-30T09:40:46.062Z,101973.53
2019-04-30T09:41:51.547Z,101971.34
2019-04-30T09:42:58.513Z,101969.52
2019-04-30T09:44:04.241Z,101968.05
2019-04-30T09:45:09.480Z,101971.44
2019-04-30T09:46:22.453Z,101970.84
2019-04-30T09:47:21.720Z,101970.36
2019-04-30T09:48:30.266Z,101977.90
2019-04-30T09:49:33.968Z,101980.06
2019-04-30T09:50:39.535Z,101972.55
2019-04-30T09:51:44.807Z,101963.78
2019-04-30T09:52:50.248Z,101967.31
2019-04-30T09:53:59.661Z,101966.83
2019-04-30T09:55:03.426Z,101973.38
2019-04-30T09:58:59.252Z,101968.39
2019-04-30T10:03:20.894Z,101961.72
2019-04-30T10:04:30.065Z,101965.73
2019-04-30T10:05:34.614Z,101960.48
2019-04-30T10:06:40.402Z,101958.67
2019-04-30T10:07:45.652Z,101955.88
2019-04-30T10:08:51.400Z,101957.31
2019-04-30T10:09:56.781Z,101956.09
2019-04-30T10:11:21.732Z,101957.55
2019-04-30T10:12:27.032Z,101953.77
2019-04-30T10:13:32.292Z,101956.94
2019-04-30T10:14:40.782Z,101952.42
2019-04-30T10:16:07.035Z,101952.02
2019-04-30T10:17:35.376Z,101947.89
2019-04-30T10:18:40.916Z,101946.78
2019-04-30T10:19:46.084Z,101941.66
2019-04-30T10:20:51.320Z,101951.14
2019-04-30T10:21:58.869Z,101943.59
2019-04-30T10:23:03.695Z,101944.82
2019-04-30T10:24:13.051Z,101940.18
2019-04-30T10:25:15.781Z,101946.02
2019-04-30T10:26:21.166Z,101934.83
2019-04-30T10:27:26.360Z,101939.33
2019-04-30T10:28:33.078Z,101932.52
2019-04-30T10:29:39.510Z,101936.05
2019-04-30T10:30:45.169Z,101940.55
2019-04-30T10:31:50.492Z,101938.73
2019-04-30T10:32:55.713Z,101934.57
2019-04-30T10:34:00.894Z,101935.05
2019-04-30T10:35:06.990Z,101934.94
2019-04-30T10:36:12.074Z,101933.45
2019-04-30T10:37:18.928Z,101938.22
2019-04-30T10:38:24.204Z,101934.05
2019-04-30T10:39:29.918Z,101934.05
2019-04-30T10:40:35.415Z,101937.10
2019-04-30T10:41:40.713Z,101929.07
2019-04-30T10:42:46.100Z,101930.81
2019-04-30T10:43:51.312Z,101927.02
2019-04-30T10:45:00.024Z,101918.84
2019-04-30T10:46:03.424Z,101920.55
2019-04-30T10:47:09.365Z,101927.36
2019-04-30T10:48:14.470Z,101919.06
2019-04-30T10:49:20.292Z,101922.33
2019-04-30T10:50:26.022Z,101923.78
2019-04-30T10:51:31.206Z,101919.98
2019-04-30T10:52:36.446Z,101922.18
2019-04-30T10:53:41.725Z,101911.69
2019-04-30T10:54:47.028Z,101908.75
2019-04-30T10:55:52.211Z,101908.48
2019-04-30T10:56:59.145Z,101911.90
2019-04-30T10:58:04.883Z,101911.97
2019-04-30T10:59:10.278Z,101906.34
2019-04-30T11:00:16.068Z,101908.77
2019-04-30T11:01:21.381Z,101907.67
2019-04-30T11:02:28.808Z,101907.19
2019-04-30T11:03:33.632Z,101900.98
2019-04-30T11:04:39.079Z,101901.25
2019-04-30T11:05:44.274Z,101911.00
2019-04-30T11:06:49.480Z,101907.25
2019-04-30T11:07:54.674Z,101895.09
2019-04-30T11:09:00.040Z,101907.78
2019-04-30T11:10:05.459Z,101901.57
2019-04-30T11:11:10.700Z,101902.27
2019-04-30T11:12:16.198Z,101906.40
2019-04-30T11:13:21.705Z,101896.98
2019-04-30T11:14:26.763Z,101900.50
2019-04-30T11:15:31.921Z,101898.63
2019-04-30T11:16:37.127Z,101898.56
2019-04-30T11:17:42.444Z,101893.53
2019-04-30T11:18:47.767Z,101898.23
2019-04-30T11:19:53.092Z,101897.32
2019-04-30T11:20:59.645Z,101892.55
2019-04-30T11:22:05.337Z,101889.95
2019-04-30T11:23:14.663Z,101886.64
2019-04-30T11:24:19.582Z,101888.34
2019-04-30T11:25:25.794Z,101890.38
2019-04-30T11:26:32.427Z,101890.59
2019-04-30T11:27:40.185Z,101888.28
2019-04-30T11:28:44.904Z,101887.80
2019-04-30T11:29:50.432Z,101876.38
2019-04-30T11:31:09.421Z,101880.15
2019-04-30T11:32:20.299Z,101873.11
2019-04-30T11:33:25.715Z,101874.21
2019-04-30T11:34:30.926Z,101878.97
2019-04-30T11:35:36.396Z,101868.24
2019-04-30T11:36:41.576Z,101870.44
2019-04-30T11:37:47.018Z,101864.06
2019-04-30T11:38:52.263Z,101870.16
2019-04-30T11:39:57.567Z,101867.11
2019-04-30T11:41:02.656Z,101863.58
2019-04-30T11:42:07.899Z,101867.60
2019-04-30T11:43:13.492Z,101864.92
2019-04-30T11:44:30.310Z,101867.27
2019-04-30T11:45:33.676Z,101863.85
2019-04-30T11:47:09.548Z,101860.81
2019-04-30T11:48:14.734Z,101862.67
2019-04-30T11:49:19.756Z,101855.39
2019-04-30T11:50:24.917Z,101854.66
2019-04-30T11:51:30.077Z,101854.66
2019-04-30T11:52:35.360Z,101852.92
2019-04-30T11:53:40.537Z,101857.61
2019-04-30T11:54:51.592Z,101853.38
2019-04-30T11:55:53.317Z,101855.41
2019-04-30T11:56:58.892Z,101845.96
2019-04-30T11:58:04.133Z,101845.72
2019-04-30T11:59:09.266Z,101847.55
2019-04-30T12:00:18.699Z,101851.20
2019-04-30T12:01:25.059Z,101844.41
2019-04-30T12:02:35.673Z,101841.03
2019-04-30T12:03:40.976Z,101838.20
2019-04-30T12:04:46.372Z,101839.91
2019-04-30T12:05:51.464Z,101842.95
2019-04-30T12:06:58.530Z,101855.71
2019-04-30T12:08:19.448Z,101844.62
2019-04-30T12:09:49.708Z,101838.92
2019-04-30T12:11:01.580Z,101845.05
2019-04-30T12:12:09.041Z,101837.77
2019-04-30T12:13:33.444Z,101834.73
2019-04-30T12:14:39.540Z,101832.53
2019-04-30T12:15:44.894Z,101834.45
2019-04-30T12:16:50.711Z,101841.24
2019-04-30T12:17:56.001Z,101837.43
2019-04-30T12:19:01.414Z,101843.03
2019-04-30T12:20:08.610Z,101836.45
2019-04-30T12:21:13.884Z,101837.30
2019-04-30T12:22:20.314Z,101832.22
2019-04-30T12:23:26.038Z,101830.67
2019-04-30T12:24:31.440Z,101831.16
2019-04-30T12:25:36.486Z,101832.50
2019-04-30T12:26:41.896Z,101836.86
2019-04-30T12:27:48.785Z,101836.58
2019-04-30T12:28:54.036Z,101834.26
2019-04-30T12:29:59.514Z,101828.62
2019-04-30T12:31:06.305Z,101832.36
2019-04-30T12:32:11.291Z,101826.72
2019-04-30T12:33:16.377Z,101826.44
2019-04-30T12:34:21.584Z,101836.55
2019-04-30T12:35:26.760Z,101834.72
2019-04-30T12:36:32.133Z,101828.88
2019-04-30T12:37:39.067Z,101827.66
2019-04-30T12:38:44.323Z,101823.14
2019-04-30T12:39:49.540Z,101819.48
2019-04-30T12:40:56.993Z,101820.55
2019-04-30T12:42:02.942Z,101820.95
2019-04-30T12:43:08.255Z,101827.09
2019-04-30T12:44:13.531Z,101823.80
2019-04-30T12:45:19.431Z,101822.45
2019-04-30T12:46:24.538Z,101817.91
2019-04-30T12:47:31.238Z,101819.78
2019-04-30T12:48:44.154Z,101814.41
2019-04-30T12:49:55.445Z,101819.54
2019-04-30T12:51:19.678Z,101813.69
2019-04-30T12:52:30.256Z,101810.02
2019-04-30T12:53:45.910Z,101807.83
2019-04-30T12:55:00.548Z,101806.85